.
WxDataArchive / Data Records for 2014-10-14
2014-10-13 October 2014 2014-10-15

Data Records for Tuesday, 14 October 2014

Time	Temp	Chill	HIndex	Humid	Dewpt	 Wind 	HiWind	WindDir	Rain 	Barom
-----	----	-----	------	-----	-----	------	------	-------	-----	-----
00:00	70.9	70.9	70.9	74	62.2	1	9	112	0.00	29.680 
00:05	70.9	70.9	70.9	74	62.2	1	9	112	0.00	29.680 
00:10	70.9	70.9	70.9	74	62.2	2	9	112	0.00	29.680 
00:15	70.9	70.9	70.9	73	61.8	2	6	90	0.00	29.676 
00:20	71.1	71.1	71.1	73	62.0	3	7	112	0.00	29.676 
00:25	71.1	71.1	71.1	73	62.0	2	9	112	0.00	29.676 
00:30	71.3	71.3	71.3	73	62.2	3	11	90	0.00	29.678 
00:35	71.3	71.3	71.3	73	62.2	3	10	90	0.00	29.678 
00:40	71.3	71.3	71.3	73	62.2	1	6	112	0.00	29.678 
00:45	71.5	71.5	71.5	72	62.0	3	14	112	0.00	29.678 
00:50	71.5	71.5	71.5	72	62.0	2	5	112	0.00	29.678 
00:55	71.5	71.5	71.5	72	62.0	1	4	90	0.00	29.678 
01:00	71.3	71.3	71.3	72	61.8	1	4	90	0.00	29.683 
01:05	71.3	71.3	71.3	72	61.8	1	3	292	0.00	29.683 
01:10	71.1	71.1	71.1	72	61.6	0	2	22	0.00	29.683 
01:15	71.1	71.1	71.1	73	62.0	0	3	22	0.00	29.671 
01:20	70.9	70.9	70.9	73	61.8	0	1	68	0.00	29.671 
01:25	70.8	70.8	70.8	73	61.7	0	3	68	0.00	29.671 
01:30	70.8	70.8	70.8	73	61.7	0	3	68	0.00	29.661 
01:35	70.6	70.6	70.6	73	61.5	0	2	45	0.00	29.661 
01:40	70.4	70.4	70.4	74	61.7	0	2	45	0.00	29.661 
01:45	70.1	70.1	70.1	76	62.2	1	4	45	0.00	29.664 
01:50	69.6	69.6	69.6	78	62.4	0	2	270	0.00	29.664 
01:55	68.9	68.9	68.9	80	62.5	0	3	270	0.00	29.664 
02:00	68.4	68.4	68.4	82	62.7	0	1	270	0.00	29.668 
02:05	67.9	67.9	67.9	84	62.9	0	3	270	0.01	29.668 
02:10	67.4	67.4	67.4	85	62.7	0	2	270	0.01	29.668 
02:15	66.9	66.9	66.9	87	62.9	0	1	270	0.00	29.655 
02:20	66.6	66.6	66.6	88	62.9	0	1	270	0.00	29.655 
02:25	66.3	66.3	66.3	89	63.0	0	1	270	0.00	29.655 
02:30	66.1	66.1	66.1	89	62.8	0	1	270	0.00	29.654 
02:35	66.0	66.0	66.0	90	63.0	0	1	270	0.00	29.654 
02:40	65.8	65.8	65.8	90	62.8	0	2	270	0.01	29.654 
02:45	65.6	65.6	65.6	91	62.9	0	1	270	0.00	29.650 
02:50	65.6	65.6	65.6	91	62.9	0	1	270	0.00	29.650 
02:55	65.5	65.5	65.5	92	63.1	0	3	270	0.02	29.650 
03:00	65.3	65.3	65.3	92	62.9	1	4	270	0.01	29.643 
03:05	65.3	65.3	65.3	92	62.9	0	2	270	0.01	29.643 
03:10	65.2	65.2	65.2	92	62.8	0	1	270	0.00	29.643 
03:15	65.2	65.2	65.2	92	62.8	0	2	270	0.00	29.638 
03:20	65.2	65.2	65.2	92	62.8	0	3	68	0.00	29.638 
03:25	65.2	65.2	65.2	92	62.8	0	2	68	0.00	29.638 
03:30	65.0	65.0	65.0	93	62.9	0	3	68	0.00	29.627 
03:35	65.0	65.0	65.0	93	62.9	0	2	68	0.00	29.627 
03:40	64.8	64.8	64.8	93	62.7	0	1	68	0.00	29.627 
03:45	64.8	64.8	64.8	93	62.7	0	2	68	0.00	29.611 
03:50	64.8	64.8	64.8	93	62.7	0	2	68	0.00	29.611 
03:55	64.7	64.7	64.7	93	62.6	0	3	68	0.00	29.611 
04:00	64.7	64.7	64.7	93	62.6	1	5	112	0.00	29.607 
04:05	64.7	64.7	64.7	93	62.6	1	3	112	0.00	29.607 
04:10	64.7	64.7	64.7	94	62.9	0	2	112	0.00	29.607 
04:15	64.7	64.7	64.7	94	62.9	0	2	112	0.00	29.616 
04:20	64.5	64.5	64.5	93	62.4	1	5	112	0.00	29.616 
04:25	64.5	64.5	64.5	93	62.4	1	3	112	0.00	29.616 
04:30	64.5	64.5	64.5	93	62.4	0	1	112	0.00	29.609 
04:35	64.3	64.3	64.3	93	62.2	0	2	112	0.00	29.609 
04:40	64.3	64.3	64.3	93	62.2	1	4	112	0.00	29.609 
04:45	64.3	64.3	64.3	93	62.2	1	3	112	0.00	29.604 
04:50	64.3	64.3	64.3	93	62.2	1	2	68	0.00	29.604 
04:55	64.2	64.2	64.2	93	62.1	1	4	112	0.00	29.604 
05:00	64.2	64.2	64.2	93	62.1	1	6	112	0.00	29.594 
05:05	64.2	64.2	64.2	92	61.8	1	3	112	0.00	29.594 
05:10	64.2	64.2	64.2	92	61.8	1	4	112	0.00	29.594 
05:15	64.2	64.2	64.2	92	61.8	1	4	68	0.00	29.589 
05:20	64.2	64.2	64.2	92	61.8	1	5	112	0.00	29.589 
05:25	64.2	64.2	64.2	91	61.5	1	5	90	0.00	29.589 
05:30	64.2	64.2	64.2	91	61.5	0	2	90	0.00	29.586 
05:35	64.2	64.2	64.2	91	61.5	0	3	90	0.00	29.586 
05:40	64.2	64.2	64.2	91	61.5	1	4	90	0.00	29.586 
05:45	64.2	64.2	64.2	90	61.2	0	3	90	0.00	29.595 
05:50	64.2	64.2	64.2	90	61.2	0	2	90	0.00	29.595 
05:55	64.2	64.2	64.2	90	61.2	0	3	90	0.00	29.595 
06:00	64.3	64.3	64.3	90	61.3	0	3	90	0.00	29.591 
06:05	64.3	64.3	64.3	90	61.3	0	4	90	0.00	29.591 
06:10	64.3	64.3	64.3	89	61.0	0	3	112	0.00	29.591 
06:15	64.3	64.3	64.3	89	61.0	0	2	112	0.01	29.581 
06:20	64.3	64.3	64.3	89	61.0	1	3	112	0.00	29.581 
06:25	64.3	64.3	64.3	89	61.0	1	3	90	0.00	29.581 
06:30	64.3	64.3	64.3	89	61.0	1	2	90	0.00	29.594 
06:35	64.3	64.3	64.3	89	61.0	0	2	90	0.00	29.594 
06:40	64.3	64.3	64.3	89	61.0	1	6	90	0.00	29.594 
06:45	64.3	64.3	64.3	89	61.0	1	4	90	0.00	29.598 
06:50	64.2	64.2	64.2	90	61.2	1	3	90	0.00	29.598 
06:55	64.2	64.2	64.2	90	61.2	1	3	112	0.00	29.598 
07:00	64.2	64.2	64.2	90	61.2	0	2	112	0.00	29.593 
07:05	64.0	64.0	64.0	90	61.0	0	4	112	0.00	29.593 
07:10	64.0	64.0	64.0	90	61.0	0	1	112	0.00	29.593 
07:15	63.9	63.9	63.9	91	61.2	0	2	112	0.00	29.595 
07:20	63.7	63.7	63.7	91	61.0	0	0	---	0.00	29.595 
07:25	63.7	63.7	63.7	91	61.0	0	0	---	0.00	29.595 
07:30	63.5	63.5	63.5	91	60.8	0	0	---	0.00	29.596 
07:35	63.5	63.5	63.5	91	60.8	0	0	---	0.00	29.596 
07:40	63.5	63.5	63.5	92	61.1	0	0	---	0.00	29.596 
07:45	63.5	63.5	63.5	92	61.1	0	1	112	0.00	29.595 
07:50	63.5	63.5	63.5	92	61.1	0	0	---	0.00	29.595 
07:55	63.5	63.5	63.5	92	61.1	0	1	112	0.00	29.595 
08:00	63.5	63.5	63.5	92	61.1	0	1	112	0.00	29.597 
08:05	63.4	63.4	63.4	92	61.0	0	2	112	0.00	29.597 
08:10	63.4	63.4	63.4	92	61.0	0	2	112	0.00	29.597 
08:15	63.4	63.4	63.4	92	61.0	0	1	112	0.00	29.591 
08:20	63.4	63.4	63.4	92	61.0	1	4	112	0.00	29.591 
08:25	63.4	63.4	63.4	92	61.0	1	4	112	0.00	29.591 
08:30	63.4	63.4	63.4	91	60.7	0	3	112	0.00	29.596 
08:35	63.4	63.4	63.4	91	60.7	1	5	112	0.01	29.596 
08:40	63.4	63.4	63.4	91	60.7	0	1	112	0.00	29.596 
08:45	63.2	63.2	63.2	91	60.5	1	5	112	0.00	29.598 
08:50	63.2	63.2	63.2	91	60.5	0	3	112	0.00	29.598 
08:55	63.1	63.1	63.1	91	60.4	1	6	68	0.01	29.598 
09:00	63.1	63.1	63.1	91	60.4	0	2	68	0.00	29.576 
09:05	62.9	62.9	62.9	92	60.5	0	2	68	0.00	29.576 
09:10	62.9	62.9	62.9	92	60.5	0	2	68	0.00	29.576 
09:15	62.7	62.7	62.7	92	60.3	0	2	68	0.00	29.597 
09:20	62.7	62.7	62.7	92	60.3	0	3	68	0.00	29.597 
09:25	62.7	62.7	62.7	92	60.3	0	2	68	0.00	29.597 
09:30	62.7	62.7	62.7	92	60.3	0	2	68	0.00	29.586 
09:35	62.7	62.7	62.7	92	60.3	0	2	68	0.00	29.586 
09:40	62.7	62.7	62.7	92	60.3	0	2	68	0.00	29.586 
09:45	62.9	62.9	62.9	92	60.5	1	4	68	0.00	29.590 
09:50	62.9	62.9	62.9	92	60.5	0	2	68	0.00	29.590 
09:55	62.9	62.9	62.9	92	60.5	0	2	68	0.00	29.590 
10:00	62.9	62.9	62.9	92	60.5	1	3	112	0.00	29.590 
10:05	63.1	63.1	63.1	92	60.7	1	2	68	0.00	29.590 
10:10	63.1	63.1	63.1	92	60.7	0	2	68	0.00	29.590 
10:15	63.1	63.1	63.1	92	60.7	0	2	68	0.00	29.576 
10:20	63.1	63.1	63.1	92	60.7	1	4	68	0.00	29.576 
10:25	63.1	63.1	63.1	92	60.7	0	1	135	0.00	29.576 
10:30	63.1	63.1	63.1	92	60.7	0	3	135	0.00	29.570 
10:35	63.2	63.2	63.2	92	60.8	1	3	135	0.00	29.570 
10:40	63.2	63.2	63.2	92	60.8	0	2	135	0.00	29.570 
10:45	63.4	63.4	63.4	92	61.0	0	2	135	0.00	29.565 
10:50	63.5	63.5	63.5	92	61.1	0	3	270	0.00	29.565 
10:55	63.5	63.5	63.5	92	61.1	1	4	112	0.00	29.565 
11:00	63.7	63.7	63.7	91	61.0	0	2	248	0.00	29.555 
11:05	63.9	63.9	63.9	91	61.2	0	3	248	0.00	29.555 
11:10	64.0	64.0	64.0	91	61.3	0	4	112	0.00	29.555 
11:15	64.3	64.3	64.3	91	61.6	1	6	90	0.00	29.550 
11:20	64.5	64.5	64.5	90	61.5	1	3	90	0.00	29.550 
11:25	64.5	64.5	64.5	89	61.2	1	3	135	0.00	29.550 
11:30	64.7	64.7	64.7	89	61.4	1	7	90	0.00	29.543 
11:35	64.8	64.8	64.8	88	61.2	1	5	112	0.00	29.543 
11:40	64.8	64.8	64.8	88	61.2	1	4	112	0.00	29.543 
11:45	65.0	65.0	65.0	87	61.0	1	4	135	0.00	29.532 
11:50	65.3	65.3	65.3	87	61.3	1	4	112	0.00	29.532 
11:55	65.5	65.5	65.5	85	60.9	3	9	112	0.00	29.532 
12:00	65.8	65.8	65.8	84	60.8	2	6	90	0.00	29.526 
12:05	66.0	66.0	66.0	84	61.0	2	6	112	0.00	29.526 
12:10	66.0	66.0	66.0	84	61.0	1	4	112	0.00	29.526 
12:15	66.1	66.1	66.1	84	61.1	2	7	90	0.00	29.516 
12:20	66.0	66.0	66.0	86	61.7	2	5	68	0.02	29.516 
12:25	66.0	66.0	66.0	87	62.0	2	6	90	0.00	29.516 
12:30	65.8	65.8	65.8	88	62.1	2	5	68	0.00	29.516 
12:35	65.6	65.6	65.6	88	61.9	2	7	90	0.00	29.516 
12:40	65.6	65.6	65.6	89	62.3	2	7	90	0.01	29.516 
12:45	65.5	65.5	65.5	89	62.2	1	4	90	0.00	29.515 
12:50	65.5	65.5	65.5	90	62.5	1	4	90	0.00	29.515 
12:55	65.5	65.5	65.5	90	62.5	2	7	90	0.01	29.515 
13:00	65.5	65.5	65.5	90	62.5	2	7	68	0.03	29.512 
13:05	65.3	65.3	65.3	91	62.6	2	10	90	0.02	29.512 
13:10	65.2	65.2	65.2	91	62.5	2	5	68	0.01	29.512 
13:15	65.0	65.0	65.0	91	62.3	2	6	112	0.02	29.519 
13:20	64.8	64.8	64.8	92	62.4	1	3	270	0.04	29.519 
13:25	64.0	64.0	64.0	91	61.3	1	4	270	0.07	29.519 
13:30	63.2	63.2	63.2	91	60.5	0	3	248	0.08	29.531 
13:35	62.7	62.7	62.7	92	60.3	0	1	248	0.04	29.531 
13:40	62.4	62.4	62.4	92	60.0	0	2	248	0.02	29.531 
13:45	62.3	62.3	62.3	92	59.9	0	2	248	0.03	29.528 
13:50	62.1	62.1	62.1	93	60.0	0	1	248	0.01	29.528 
13:55	62.1	62.1	62.1	93	60.0	0	2	248	0.01	29.528 
14:00	62.1	62.1	62.1	93	60.0	0	2	248	0.00	29.522 
14:05	62.1	62.1	62.1	93	60.0	0	1	248	0.01	29.522 
14:10	62.3	62.3	62.3	93	60.2	0	2	248	0.00	29.522 
14:15	62.3	62.3	62.3	93	60.2	0	2	248	0.00	29.526 
14:20	62.4	62.4	62.4	93	60.3	0	2	248	0.00	29.526 
14:25	62.3	62.3	62.3	93	60.2	1	6	45	0.00	29.526 
14:30	62.3	62.3	62.3	93	60.2	1	4	90	0.00	29.536 
14:35	62.4	62.4	62.4	93	60.3	0	2	90	0.00	29.536 
14:40	62.4	62.4	62.4	93	60.3	0	2	90	0.00	29.536 
14:45	62.4	62.4	62.4	93	60.3	0	1	90	0.00	29.538 
14:50	62.4	62.4	62.4	93	60.3	0	1	292	0.00	29.538 
14:55	62.3	62.3	62.3	93	60.2	0	3	292	0.01	29.538 
15:00	62.3	62.3	62.3	93	60.2	0	2	292	0.00	29.530 
15:05	62.3	62.3	62.3	93	60.2	0	3	292	0.00	29.530 
15:10	62.3	62.3	62.3	93	60.2	0	1	315	0.00	29.530 
15:15	62.3	62.3	62.3	93	60.2	0	2	292	0.00	29.540 
15:20	62.1	62.1	62.1	93	60.0	0	3	292	0.00	29.540 
15:25	61.5	61.5	61.5	92	59.2	1	4	270	0.01	29.540 
15:30	61.3	61.3	61.3	93	59.3	0	2	248	0.00	29.538 
15:35	61.5	61.5	61.5	93	59.5	0	1	248	0.00	29.538 
15:40	61.6	61.6	61.6	93	59.6	0	4	135	0.00	29.538 
15:45	61.5	61.5	61.5	92	59.2	0	2	158	0.00	29.545 
15:50	61.5	61.5	61.5	93	59.5	0	1	135	0.00	29.545 
15:55	61.5	61.5	61.5	93	59.5	0	2	135	0.00	29.545 
16:00	61.8	61.8	61.8	93	59.8	0	2	135	0.00	29.528 
16:05	62.0	62.0	62.0	93	59.9	0	2	135	0.00	29.528 
16:10	62.0	62.0	62.0	92	59.6	0	3	135	0.00	29.528 
16:15	62.0	62.0	62.0	92	59.6	0	1	135	0.00	29.541 
16:20	61.8	61.8	61.8	92	59.4	0	1	135	0.00	29.541 
16:25	62.0	62.0	62.0	92	59.6	0	1	135	0.00	29.541 
16:30	62.1	62.1	62.1	92	59.7	0	2	135	0.00	29.550 
16:35	62.3	62.3	62.3	91	59.6	0	3	135	0.00	29.550 
16:40	62.4	62.4	62.4	91	59.7	0	1	135	0.00	29.550 
16:45	62.6	62.6	62.6	90	59.6	0	2	135	0.00	29.556 
16:50	62.6	62.6	62.6	89	59.3	0	2	112	0.00	29.556 
16:55	62.4	62.4	62.4	88	58.8	0	2	112	0.00	29.556 
17:00	62.4	62.4	62.4	87	58.5	1	6	68	0.00	29.551 
17:05	62.6	62.6	62.6	87	58.7	0	1	68	0.00	29.551 
17:10	62.6	62.6	62.6	87	58.7	0	1	68	0.00	29.551 
17:15	62.6	62.6	62.6	87	58.7	0	1	68	0.00	29.537 
17:20	62.7	62.7	62.7	87	58.8	0	1	68	0.00	29.537 
17:25	62.7	62.7	62.7	87	58.8	0	1	68	0.00	29.537 
17:30	62.9	62.9	62.9	87	59.0	0	1	68	0.00	29.547 
17:35	62.7	62.7	62.7	87	58.8	0	2	68	0.00	29.547 
17:40	62.7	62.7	62.7	86	58.4	1	4	68	0.00	29.547 
17:45	62.7	62.7	62.7	86	58.4	0	3	90	0.00	29.575 
17:50	62.9	62.9	62.9	86	58.6	1	4	90	0.00	29.575 
17:55	62.9	62.9	62.9	86	58.6	0	3	90	0.00	29.575 
18:00	62.7	62.7	62.7	86	58.4	0	2	90	0.00	29.571 
18:05	62.7	62.7	62.7	86	58.4	0	1	90	0.00	29.571 
18:10	62.6	62.6	62.6	86	58.3	0	1	90	0.00	29.571 
18:15	62.6	62.6	62.6	86	58.3	0	2	90	0.00	29.568 
18:20	62.4	62.4	62.4	87	58.5	0	1	90	0.00	29.568 
18:25	62.4	62.4	62.4	87	58.5	0	1	90	0.00	29.568 
18:30	62.4	62.4	62.4	87	58.5	0	0	---	0.00	29.575 
18:35	62.3	62.3	62.3	87	58.4	0	1	90	0.00	29.575 
18:40	62.1	62.1	62.1	87	58.2	0	0	---	0.00	29.575 
18:45	62.1	62.1	62.1	87	58.2	0	0	---	0.00	29.578 
18:50	62.0	62.0	62.0	87	58.1	0	1	90	0.00	29.578 
18:55	62.0	62.0	62.0	88	58.4	0	1	90	0.00	29.578 
19:00	61.8	61.8	61.8	88	58.2	0	1	90	0.00	29.577 
19:05	61.8	61.8	61.8	88	58.2	0	0	---	0.00	29.577 
19:10	61.8	61.8	61.8	88	58.2	0	1	90	0.00	29.577 
19:15	61.6	61.6	61.6	88	58.0	0	0	---	0.00	29.579 
19:20	61.6	61.6	61.6	88	58.0	0	1	90	0.00	29.579 
19:25	61.5	61.5	61.5	88	57.9	0	0	---	0.00	29.579 
19:30	61.3	61.3	61.3	88	57.7	0	0	---	0.00	29.579 
19:35	61.2	61.2	61.2	88	57.6	0	0	---	0.00	29.579 
19:40	60.9	60.9	60.9	88	57.3	0	0	---	0.00	29.579 
19:45	60.5	60.5	60.5	89	57.2	0	0	---	0.00	29.592 
19:50	60.4	60.4	60.4	89	57.1	0	0	---	0.00	29.592 
19:55	60.2	60.2	60.2	89	56.9	0	0	---	0.00	29.592 
20:00	60.1	60.1	60.1	90	57.2	0	0	---	0.00	29.604 
20:05	60.1	60.1	60.1	90	57.2	0	1	90	0.00	29.604 
20:10	60.1	60.1	60.1	90	57.2	0	1	90	0.00	29.604 
20:15	60.1	60.1	60.1	91	57.5	0	1	90	0.00	29.607 
20:20	60.2	60.2	60.2	91	57.6	0	1	90	0.00	29.607 
20:25	60.4	60.4	60.4	91	57.8	0	1	90	0.00	29.607 
20:30	60.4	60.4	60.4	91	57.8	0	0	---	0.00	29.610 
20:35	60.2	60.2	60.2	90	57.3	0	1	90	0.00	29.610 
20:40	60.2	60.2	60.2	90	57.3	0	1	90	0.00	29.610 
20:45	60.1	60.1	60.1	90	57.2	0	1	90	0.00	29.617 
20:50	60.1	60.1	60.1	90	57.2	0	1	90	0.00	29.617 
20:55	60.1	60.1	60.1	89	56.8	0	1	90	0.00	29.617 
21:00	59.9	59.9	59.9	89	56.6	0	1	90	0.00	29.624 
21:05	59.9	59.9	59.9	88	56.3	0	1	90	0.00	29.624 
21:10	59.9	59.9	59.9	88	56.3	0	1	90	0.00	29.624 
21:15	59.9	59.9	59.9	88	56.3	0	0	---	0.00	29.635 
21:20	59.9	59.9	59.9	88	56.3	0	0	---	0.00	29.635 
21:25	59.9	59.9	59.9	88	56.3	0	0	---	0.00	29.635 
21:30	59.8	59.8	59.8	88	56.2	0	0	---	0.00	29.637 
21:35	59.5	59.5	59.5	88	55.9	0	0	---	0.00	29.637 
21:40	59.3	59.3	59.3	88	55.7	0	0	---	0.00	29.637 
21:45	59.2	59.2	59.2	88	55.6	0	0	---	0.00	29.638 
21:50	59.0	59.0	59.0	88	55.4	0	0	---	0.00	29.638 
21:55	58.6	58.6	58.6	88	55.1	0	0	---	0.00	29.638 
22:00	58.3	58.3	58.3	87	54.4	0	1	90	0.00	29.641 
22:05	57.8	57.8	57.8	86	53.6	0	0	---	0.00	29.641 
22:10	57.5	57.5	57.5	86	53.3	0	0	---	0.00	29.641 
22:15	57.2	57.2	57.2	85	52.7	0	0	---	0.00	29.643 
22:20	57.0	57.0	57.0	85	52.5	0	0	---	0.00	29.643 
22:25	56.7	56.7	56.7	85	52.2	0	0	---	0.00	29.643 
22:30	56.5	56.5	56.5	84	51.7	0	0	---	0.00	29.642 
22:35	56.3	56.3	56.3	84	51.5	0	1	90	0.00	29.642 
22:40	56.3	56.3	56.3	84	51.5	0	0	---	0.00	29.642 
22:45	56.2	56.2	56.2	84	51.4	0	0	---	0.00	29.653 
22:50	56.0	56.0	56.0	84	51.2	0	0	---	0.00	29.653 
22:55	55.9	55.9	55.9	84	51.1	0	0	---	0.00	29.653 
23:00	55.6	55.6	55.6	84	50.8	0	0	---	0.00	29.657 
23:05	55.4	55.4	55.4	85	51.0	0	0	---	0.00	29.657 
23:10	55.1	55.1	55.1	85	50.7	0	0	---	0.00	29.657 
23:15	55.0	55.0	55.0	86	50.9	0	0	---	0.00	29.659 
23:20	54.8	54.8	54.8	86	50.7	0	0	---	0.00	29.659 
23:25	54.5	54.5	54.5	86	50.4	0	0	---	0.00	29.659 
23:30	54.4	54.4	54.4	86	50.3	0	0	---	0.00	29.660 
23:35	54.2	54.2	54.2	87	50.4	0	0	---	0.00	29.660 
23:40	54.1	54.1	54.1	88	50.6	0	0	---	0.00	29.660 
23:45	53.9	53.9	53.9	88	50.4	0	0	---	0.00	29.663 
23:50	53.8	53.8	53.8	89	50.6	0	0	---	0.00	29.663 
23:55	53.8	53.8	53.8	89	50.6	0	0	---	0.00	29.663 

CoCoRaHS
IN-AL-39
A2 Web Hosting
Creative Commons License
GoDaddy
search engine by freefind advanced

loaded 2018-11-16 11:01:51 • last modified 2010-11-18 10:43:29
Privacy PolicyDisclaimer
• wx.awcolley.com is powered by PmWiki v.2002016 •
• all content (unless otherwise noted) © 2018 A W Colley